createdAt,value
2023-01-13T00:01:31.070Z,12.98
2023-01-13T00:03:58.858Z,12.98
2023-01-13T00:06:27.276Z,13.06
2023-01-13T00:08:55.223Z,13.06
2023-01-13T00:11:23.547Z,13.07
2023-01-13T00:13:51.234Z,13.12
2023-01-13T00:16:20.377Z,13.13
2023-01-13T00:18:49.332Z,13.14
2023-01-13T00:21:24.116Z,13.14
2023-01-13T00:23:54.417Z,13.13
2023-01-13T00:26:27.639Z,13.12
2023-01-13T00:28:59.232Z,13.14
2023-01-13T00:31:29.064Z,13.12
2023-01-13T00:33:58.149Z,13.16
2023-01-13T00:36:25.914Z,13.17
2023-01-13T00:38:53.644Z,13.16
2023-01-13T00:41:24.060Z,13.18
2023-01-13T00:43:51.783Z,13.22
2023-01-13T00:46:21.783Z,13.24
2023-01-13T00:48:51.615Z,13.28
2023-01-13T00:51:21.396Z,13.32
2023-01-13T00:53:51.846Z,13.30
2023-01-13T00:56:38.564Z,13.33
2023-01-13T00:59:11.635Z,13.37
2023-01-13T01:01:40.245Z,13.41
2023-01-13T01:04:08.565Z,13.41
2023-01-13T01:06:36.380Z,13.40
2023-01-13T01:09:04.792Z,13.39
2023-01-13T01:11:34.327Z,13.37
2023-01-13T01:14:04.295Z,13.38
2023-01-13T01:16:33.557Z,13.38
2023-01-13T01:19:02.487Z,13.37
2023-01-13T01:21:30.201Z,13.31
2023-01-13T01:24:01.349Z,13.34
2023-01-13T01:26:31.085Z,13.34
2023-01-13T01:28:59.561Z,13.39
2023-01-13T01:31:31.718Z,13.42
2023-01-13T01:34:00.397Z,13.44
2023-01-13T01:36:31.791Z,13.42
2023-01-13T01:39:00.408Z,13.43
2023-01-13T01:41:32.699Z,13.39
2023-01-13T01:44:38.115Z,13.36
2023-01-13T01:47:05.974Z,13.37
2023-01-13T01:49:37.051Z,13.38
2023-01-13T01:52:31.075Z,13.34
2023-01-13T01:55:27.554Z,13.32
2023-01-13T01:58:35.479Z,13.36
2023-01-13T02:01:03.533Z,13.35
2023-01-13T02:03:31.459Z,13.38
2023-01-13T02:05:59.158Z,13.30
2023-01-13T02:08:27.242Z,13.30
2023-01-13T02:10:55.011Z,13.32
2023-01-13T02:13:23.462Z,13.24
2023-01-13T02:16:17.056Z,13.22
2023-01-13T02:19:18.041Z,13.22
2023-01-13T02:22:37.831Z,13.26
2023-01-13T02:25:59.031Z,13.19
2023-01-13T02:29:31.158Z,13.16
2023-01-13T02:32:22.747Z,13.22
2023-01-13T02:35:06.666Z,13.16
2023-01-13T02:37:40.456Z,13.14
2023-01-13T02:40:30.044Z,13.16
2023-01-13T02:43:44.879Z,13.19
2023-01-13T02:46:30.229Z,13.14
2023-01-13T02:49:06.189Z,13.10
2023-01-13T02:51:35.379Z,13.03
2023-01-13T02:54:21.985Z,12.97
2023-01-13T02:56:53.395Z,12.99
2023-01-13T02:59:26.207Z,13.08
2023-01-13T03:01:57.349Z,13.07
2023-01-13T03:04:51.567Z,13.14
2023-01-13T03:08:00.970Z,13.11
2023-01-13T03:10:49.672Z,13.10
2023-01-13T03:13:52.098Z,13.14
2023-01-13T03:17:00.765Z,13.02
2023-01-13T03:20:08.401Z,13.10
2023-01-13T03:23:01.799Z,13.09
2023-01-13T03:25:37.055Z,13.14
2023-01-13T03:28:14.255Z,13.08
2023-01-13T03:30:54.566Z,13.03
2023-01-13T03:33:32.333Z,12.95
2023-01-13T03:36:06.518Z,12.97
2023-01-13T03:38:39.254Z,13.03
2023-01-13T03:41:30.252Z,12.94
2023-01-13T03:44:28.024Z,12.96
2023-01-13T03:47:13.474Z,13.02
2023-01-13T03:49:54.596Z,13.04
2023-01-13T03:52:47.077Z,12.99
2023-01-13T03:55:26.418Z,12.93
2023-01-13T03:58:14.241Z,12.94
2023-01-13T04:00:54.564Z,12.91
2023-01-13T04:04:25.440Z,12.92
2023-01-13T04:07:27.079Z,12.90
2023-01-13T04:10:02.010Z,12.92
2023-01-13T04:12:54.922Z,12.97
2023-01-13T04:15:27.963Z,12.96
2023-01-13T04:18:12.760Z,12.98
2023-01-13T04:20:41.986Z,12.99
2023-01-13T04:23:10.237Z,13.03
2023-01-13T04:25:38.130Z,12.97
2023-01-13T04:28:05.661Z,12.89
2023-01-13T04:30:33.535Z,12.95
2023-01-13T04:33:01.575Z,12.95
2023-01-13T04:35:29.088Z,13.02
2023-01-13T04:37:56.694Z,13.08
2023-01-13T04:40:24.247Z,13.10
2023-01-13T04:42:51.733Z,13.13
2023-01-13T04:45:19.249Z,13.07
2023-01-13T04:47:48.555Z,13.11
2023-01-13T04:50:19.538Z,13.09
2023-01-13T04:52:48.919Z,13.13
2023-01-13T04:55:19.086Z,13.17
2023-01-13T04:57:46.834Z,13.00
2023-01-13T05:00:18.146Z,13.12
2023-01-13T05:02:45.700Z,13.12
2023-01-13T05:05:13.191Z,13.10
2023-01-13T05:07:40.667Z,13.15
2023-01-13T05:10:09.250Z,13.11
2023-01-13T05:12:55.053Z,13.19
2023-01-13T05:15:41.334Z,13.22
2023-01-13T05:18:09.408Z,13.26
2023-01-13T05:20:37.037Z,13.29
2023-01-13T05:23:23.028Z,13.32
2023-01-13T05:25:50.566Z,13.32
2023-01-13T05:28:18.117Z,13.32
2023-01-13T05:30:49.078Z,13.33
2023-01-13T05:33:20.581Z,13.33
2023-01-13T05:35:49.200Z,13.22
2023-01-13T05:38:17.962Z,13.26
2023-01-13T05:41:03.970Z,13.30
2023-01-13T05:43:32.919Z,13.32
2023-01-13T05:46:07.883Z,13.33
2023-01-13T05:48:42.845Z,13.36
2023-01-13T05:51:12.888Z,13.37
2023-01-13T05:53:43.634Z,13.37
2023-01-13T05:56:11.640Z,13.36
2023-01-13T05:58:39.368Z,13.37
2023-01-13T06:01:09.756Z,13.37
2023-01-13T06:03:37.947Z,13.41
2023-01-13T06:06:08.474Z,13.41
2023-01-13T06:08:38.680Z,13.43
2023-01-13T06:11:07.849Z,13.44
2023-01-13T06:13:35.395Z,13.43
2023-01-13T06:16:02.991Z,13.42
2023-01-13T06:18:30.556Z,13.42
2023-01-13T06:20:58.149Z,13.46
2023-01-13T06:23:26.328Z,13.48
2023-01-13T06:26:04.629Z,13.40
2023-01-13T06:28:33.226Z,13.43
2023-01-13T06:31:06.341Z,13.44
2023-01-13T06:33:38.945Z,13.49
2023-01-13T06:36:16.248Z,13.48
2023-01-13T06:38:47.692Z,13.48
2023-01-13T06:41:16.005Z,13.51
2023-01-13T06:43:43.520Z,13.51
2023-01-13T06:46:11.112Z,13.50
2023-01-13T06:48:38.739Z,13.51
2023-01-13T06:51:06.352Z,13.50
2023-01-13T06:53:33.844Z,13.53
2023-01-13T06:56:01.359Z,13.51
2023-01-13T06:58:28.912Z,13.50
2023-01-13T07:01:00.849Z,13.43
2023-01-13T07:03:28.467Z,13.49
2023-01-13T07:05:56.492Z,13.46
2023-01-13T07:08:24.421Z,13.44
2023-01-13T07:10:52.885Z,13.45
2023-01-13T07:13:39.956Z,13.44
2023-01-13T07:16:09.353Z,13.43
2023-01-13T07:18:37.402Z,13.43
2023-01-13T07:21:08.233Z,13.44
2023-01-13T07:23:39.528Z,13.47
2023-01-13T07:26:09.359Z,13.48
2023-01-13T07:28:38.069Z,13.45
2023-01-13T07:31:12.783Z,13.46
2023-01-13T07:33:40.342Z,13.48
2023-01-13T07:36:08.390Z,13.44
2023-01-13T07:38:36.223Z,13.44
2023-01-13T07:41:22.063Z,13.43
2023-01-13T07:43:50.227Z,13.44
2023-01-13T07:46:18.821Z,13.45
2023-01-13T07:48:48.439Z,13.39
2023-01-13T07:51:16.286Z,13.38
2023-01-13T07:53:43.775Z,13.38
2023-01-13T07:56:11.250Z,13.38
2023-01-13T07:58:38.891Z,13.44
2023-01-13T08:01:14.068Z,13.46
2023-01-13T08:03:41.801Z,13.48
2023-01-13T08:06:11.308Z,13.54
2023-01-13T08:08:39.462Z,13.55
2023-01-13T08:11:08.153Z,13.52
2023-01-13T08:13:36.357Z,13.54
2023-01-13T08:16:11.890Z,13.50
2023-01-13T08:18:39.834Z,13.51
2023-01-13T08:21:14.238Z,13.44
2023-01-13T08:23:44.032Z,13.40
2023-01-13T08:26:17.540Z,13.35
2023-01-13T08:28:45.731Z,13.34
2023-01-13T08:31:16.916Z,13.33
2023-01-13T08:33:44.859Z,13.29
2023-01-13T08:36:12.832Z,13.29
2023-01-13T08:38:41.374Z,13.23
2023-01-13T08:41:15.366Z,13.16
2023-01-13T08:43:43.060Z,13.14
2023-01-13T08:46:10.669Z,12.80
2023-01-13T08:48:38.179Z,12.15
2023-01-13T08:51:09.025Z,11.67
2023-01-13T08:53:36.718Z,11.10
2023-01-13T08:56:11.632Z,10.66
2023-01-13T08:58:40.540Z,10.86
2023-01-13T09:01:10.926Z,10.72
2023-01-13T09:03:39.267Z,10.67
2023-01-13T09:06:06.782Z,10.49
2023-01-13T09:08:34.270Z,10.73
2023-01-13T09:11:21.761Z,10.57
2023-01-13T09:13:49.254Z,10.57
2023-01-13T09:16:16.788Z,10.82
2023-01-13T09:18:44.287Z,10.94
2023-01-13T09:21:19.755Z,10.95
2023-01-13T09:23:47.289Z,10.92
2023-01-13T09:26:20.986Z,11.04
2023-01-13T09:28:48.719Z,11.10
2023-01-13T09:31:16.263Z,11.21
2023-01-13T09:34:02.524Z,11.21
2023-01-13T09:36:29.996Z,11.18
2023-01-13T09:38:57.494Z,11.31
2023-01-13T09:41:46.492Z,11.31
2023-01-13T09:44:29.640Z,11.45
2023-01-13T09:47:04.072Z,11.43
2023-01-13T09:49:38.622Z,11.57
2023-01-13T09:52:27.053Z,11.15
2023-01-13T09:55:09.223Z,11.06
2023-01-13T09:57:39.811Z,11.15
2023-01-13T10:00:24.912Z,11.15
2023-01-13T10:03:29.744Z,11.30
2023-01-13T10:06:22.373Z,11.36
2023-01-13T10:08:50.506Z,11.35
2023-01-13T10:11:42.822Z,11.29
2023-01-13T10:14:18.950Z,11.15
2023-01-13T10:17:15.547Z,11.08
2023-01-13T10:20:33.182Z,11.08
2023-01-13T10:24:02.933Z,11.07
2023-01-13T10:27:07.459Z,11.07
2023-01-13T10:29:36.657Z,11.32
2023-01-13T10:32:04.850Z,11.35
2023-01-13T10:35:00.224Z,11.56
2023-01-13T10:37:28.546Z,11.63
2023-01-13T10:40:02.245Z,11.56
2023-01-13T10:42:29.841Z,11.47
2023-01-13T10:45:01.247Z,11.61
2023-01-13T10:47:35.748Z,11.62
2023-01-13T10:50:12.097Z,11.48
2023-01-13T10:52:55.857Z,11.54
2023-01-13T10:55:37.088Z,11.39
2023-01-13T10:58:25.046Z,11.43
2023-01-13T11:01:05.556Z,11.34
2023-01-13T11:03:42.855Z,11.55
2023-01-13T11:06:33.225Z,11.48
2023-01-13T11:09:03.047Z,11.48
2023-01-13T11:11:46.886Z,11.43
2023-01-13T11:14:42.758Z,11.46
2023-01-13T11:17:36.140Z,11.38
2023-01-13T11:20:12.320Z,11.20
2023-01-13T11:22:44.641Z,11.33
2023-01-13T11:25:31.411Z,11.33
2023-01-13T11:28:30.492Z,11.33
2023-01-13T11:31:13.541Z,11.23
2023-01-13T11:34:15.188Z,11.00
2023-01-13T11:36:51.641Z,11.14
2023-01-13T11:40:01.421Z,11.23
2023-01-13T11:42:41.617Z,11.47
2023-01-13T11:45:24.225Z,11.50
2023-01-13T11:47:55.583Z,11.58
2023-01-13T11:50:48.065Z,11.59
2023-01-13T11:54:03.271Z,11.57
2023-01-13T11:56:53.947Z,11.68
2023-01-13T11:59:40.172Z,11.57
2023-01-13T12:02:35.637Z,11.60
2023-01-13T12:05:34.094Z,11.76
2023-01-13T12:08:26.485Z,11.55
2023-01-13T12:12:10.331Z,11.69
2023-01-13T12:15:02.898Z,11.59
2023-01-13T12:17:55.334Z,11.34
2023-01-13T12:20:31.434Z,11.23
2023-01-13T12:23:06.073Z,10.88
2023-01-13T12:25:49.574Z,10.74
2023-01-13T12:28:26.352Z,10.79
2023-01-13T12:31:00.572Z,11.25
2023-01-13T12:34:02.120Z,11.25
2023-01-13T12:36:47.447Z,11.29
2023-01-13T12:39:50.131Z,11.33
2023-01-13T12:42:52.331Z,11.07
2023-01-13T12:45:27.088Z,10.90
2023-01-13T12:47:55.989Z,11.26
2023-01-13T12:50:23.789Z,11.24
2023-01-13T12:52:56.247Z,11.55
2023-01-13T12:55:35.097Z,11.36
2023-01-13T12:58:08.445Z,11.25
2023-01-13T13:00:40.981Z,11.27
2023-01-13T13:03:11.106Z,11.60
2023-01-13T13:06:12.919Z,11.04
2023-01-13T13:09:06.106Z,10.96
2023-01-13T13:11:58.276Z,11.40
2023-01-13T13:14:38.125Z,11.46
2023-01-13T13:17:29.869Z,11.61
2023-01-13T13:19:59.614Z,11.49
2023-01-13T13:22:26.963Z,11.61
2023-01-13T13:24:57.599Z,11.77
2023-01-13T13:27:53.744Z,11.41
2023-01-13T13:30:34.102Z,11.37
2023-01-13T13:33:32.788Z,11.35
2023-01-13T13:36:44.425Z,11.68
2023-01-13T13:39:47.371Z,11.90
2023-01-13T13:42:46.409Z,12.08
2023-01-13T13:45:40.255Z,12.12
2023-01-13T13:48:21.198Z,11.87
2023-01-13T13:51:04.609Z,11.83
2023-01-13T13:53:38.764Z,11.71
2023-01-13T13:56:18.905Z,11.41
2023-01-13T13:58:48.509Z,11.77
2023-01-13T14:01:34.876Z,11.68
2023-01-13T14:04:27.365Z,11.37
2023-01-13T14:07:18.286Z,11.15
2023-01-13T14:09:50.202Z,10.89
2023-01-13T14:12:25.236Z,10.87
2023-01-13T14:14:56.720Z,10.79
2023-01-13T14:17:28.327Z,10.89
2023-01-13T14:20:15.791Z,11.11
2023-01-13T14:22:53.751Z,11.39
2023-01-13T14:25:30.072Z,11.35
2023-01-13T14:28:07.722Z,11.30
2023-01-13T14:30:35.540Z,11.42
2023-01-13T14:33:03.509Z,11.55
2023-01-13T14:35:31.047Z,11.66
2023-01-13T14:38:02.683Z,11.60
2023-01-13T14:40:33.154Z,11.57
2023-01-13T14:43:08.111Z,11.54
2023-01-13T14:45:35.610Z,11.46
2023-01-13T14:48:08.909Z,11.54
2023-01-13T14:50:37.037Z,11.47
2023-01-13T14:53:27.080Z,11.38
2023-01-13T14:55:54.811Z,11.40
2023-01-13T14:58:22.390Z,11.34
2023-01-13T15:00:52.515Z,11.19
2023-01-13T15:03:21.629Z,11.10
2023-01-13T15:05:53.248Z,11.14
2023-01-13T15:08:31.562Z,11.12
2023-01-13T15:11:02.319Z,11.08
2023-01-13T15:13:36.228Z,11.00
2023-01-13T15:16:13.861Z,11.09
2023-01-13T15:18:41.358Z,11.06
2023-01-13T15:21:09.909Z,11.02
2023-01-13T15:23:39.828Z,10.96
2023-01-13T15:26:26.777Z,10.98
2023-01-13T15:28:57.743Z,10.91
2023-01-13T15:31:26.329Z,10.88
2023-01-13T15:33:54.236Z,10.86
2023-01-13T15:36:30.893Z,10.91
2023-01-13T15:39:00.276Z,10.82
2023-01-13T15:41:46.830Z,10.81
2023-01-13T15:44:34.573Z,10.74
2023-01-13T15:47:08.716Z,10.71
2023-01-13T15:49:44.822Z,10.73
2023-01-13T15:52:25.150Z,10.68
2023-01-13T15:54:54.444Z,10.70
2023-01-13T15:57:31.699Z,10.54
2023-01-13T16:00:05.012Z,10.50
2023-01-13T16:02:34.570Z,10.33
2023-01-13T16:05:02.107Z,10.07
2023-01-13T16:07:30.081Z,10.01
2023-01-13T16:09:57.679Z,9.66
2023-01-13T16:12:25.152Z,9.63
2023-01-13T16:14:52.687Z,9.77
2023-01-13T16:17:27.341Z,9.83
2023-01-13T16:19:55.267Z,9.57
2023-01-13T16:22:22.824Z,9.57
2023-01-13T16:24:50.420Z,9.75
2023-01-13T16:27:22.226Z,9.82
2023-01-13T16:29:51.746Z,9.91
2023-01-13T16:32:20.866Z,9.98
2023-01-13T16:34:49.454Z,10.02
2023-01-13T16:37:26.101Z,10.04
2023-01-13T16:39:54.861Z,10.08
2023-01-13T16:42:22.518Z,10.01
2023-01-13T16:44:50.669Z,10.01
2023-01-13T16:47:18.727Z,10.06
2023-01-13T16:49:47.281Z,10.05
2023-01-13T16:52:15.143Z,10.06
2023-01-13T16:54:42.660Z,10.07
2023-01-13T16:57:13.880Z,10.11
2023-01-13T16:59:41.380Z,10.12
2023-01-13T17:02:14.698Z,10.08
2023-01-13T17:04:42.662Z,10.08
2023-01-13T17:07:16.433Z,10.10
2023-01-13T17:09:43.961Z,10.11
2023-01-13T17:12:11.654Z,10.12
2023-01-13T17:14:39.970Z,10.12
2023-01-13T17:17:24.728Z,10.16
2023-01-13T17:19:53.015Z,10.19
2023-01-13T17:22:21.555Z,10.17
2023-01-13T17:24:49.138Z,10.15
2023-01-13T17:27:18.518Z,10.14
2023-01-13T17:29:46.062Z,10.13
2023-01-13T17:32:18.480Z,9.92
2023-01-13T17:34:46.092Z,9.95
2023-01-13T17:37:16.128Z,9.99
2023-01-13T17:39:46.224Z,10.11
2023-01-13T17:42:15.282Z,10.19
2023-01-13T17:44:42.872Z,10.20
2023-01-13T17:47:10.549Z,10.26
2023-01-13T17:49:38.053Z,10.37
2023-01-13T17:52:06.458Z,10.32
2023-01-13T17:54:33.993Z,10.37
2023-01-13T17:57:01.921Z,10.38
2023-01-13T17:59:29.416Z,10.38
2023-01-13T18:01:56.963Z,10.29
2023-01-13T18:04:30.741Z,10.27
2023-01-13T18:06:58.261Z,10.29
2023-01-13T18:09:26.652Z,10.30
2023-01-13T18:11:54.150Z,10.18
2023-01-13T18:14:22.447Z,10.15
2023-01-13T18:16:51.231Z,10.18
2023-01-13T18:19:37.178Z,10.25
2023-01-13T18:22:23.341Z,10.23
2023-01-13T18:25:09.426Z,10.17
2023-01-13T18:27:41.590Z,10.18
2023-01-13T18:30:10.992Z,9.84
2023-01-13T18:32:38.616Z,9.92
2023-01-13T18:35:10.249Z,9.78
2023-01-13T18:37:40.423Z,9.93
2023-01-13T18:40:11.735Z,9.85
2023-01-13T18:42:51.668Z,10.00
2023-01-13T18:45:31.737Z,10.17
2023-01-13T18:48:02.128Z,10.15
2023-01-13T18:50:30.701Z,10.02
2023-01-13T18:52:58.527Z,10.13
2023-01-13T18:55:28.434Z,10.17
2023-01-13T18:57:57.312Z,10.28
2023-01-13T19:00:26.773Z,10.21
2023-01-13T19:05:35.913Z,10.10
2023-01-13T19:08:04.441Z,10.15
2023-01-13T19:10:32.498Z,10.00
2023-01-13T19:13:01.534Z,9.93
2023-01-13T19:15:29.619Z,9.96
2023-01-13T19:17:57.166Z,10.04
2023-01-13T19:20:24.652Z,10.03
2023-01-13T19:22:54.309Z,10.14
2023-01-13T19:25:21.985Z,10.15
2023-01-13T19:27:49.483Z,10.23
2023-01-13T19:30:17.424Z,10.17
2023-01-13T19:32:44.934Z,10.18
2023-01-13T19:35:17.275Z,10.25
2023-01-13T19:37:45.348Z,10.35
2023-01-13T19:40:13.819Z,10.33
2023-01-13T19:43:02.405Z,10.44
2023-01-13T19:45:32.014Z,10.48
2023-01-13T19:48:05.328Z,10.51
2023-01-13T19:50:38.423Z,10.48
2023-01-13T19:53:08.024Z,10.44
2023-01-13T19:55:35.635Z,10.36
2023-01-13T19:58:03.906Z,10.42
2023-01-13T20:00:31.496Z,10.51
2023-01-13T20:03:03.214Z,10.40
2023-01-13T20:05:30.862Z,10.32
2023-01-13T20:07:58.389Z,10.01
2023-01-13T20:10:25.951Z,10.25
2023-01-13T20:12:53.526Z,10.21
2023-01-13T20:15:21.180Z,10.17
2023-01-13T20:17:48.674Z,9.81
2023-01-13T20:20:16.709Z,9.84
2023-01-13T20:22:44.440Z,9.85
2023-01-13T20:25:16.518Z,9.73
2023-01-13T20:27:47.807Z,9.85
2023-01-13T20:30:15.975Z,9.80
2023-01-13T20:32:44.345Z,9.93
2023-01-13T20:35:12.135Z,9.97
2023-01-13T20:37:42.207Z,9.96
2023-01-13T20:40:14.001Z,10.01
2023-01-13T20:42:45.112Z,10.04
2023-01-13T20:45:17.959Z,9.98
2023-01-13T20:47:46.264Z,10.03
2023-01-13T20:50:14.823Z,10.05
2023-01-13T20:52:42.912Z,10.04
2023-01-13T20:55:11.397Z,9.96
2023-01-13T20:57:40.657Z,9.81
2023-01-13T21:00:11.355Z,9.84
2023-01-13T21:02:40.579Z,9.90
2023-01-13T21:05:09.177Z,9.90
2023-01-13T21:07:36.695Z,9.86
2023-01-13T21:10:05.739Z,9.85
2023-01-13T21:12:51.638Z,9.77
2023-01-13T21:15:21.683Z,9.77
2023-01-13T21:18:10.170Z,9.74
2023-01-13T21:20:38.805Z,9.72
2023-01-13T21:23:06.976Z,9.79
2023-01-13T21:25:36.349Z,9.82
2023-01-13T21:28:05.585Z,9.71
2023-01-13T21:30:33.801Z,9.76
2023-01-13T21:33:02.449Z,9.82
2023-01-13T21:35:30.362Z,9.85
2023-01-13T21:37:57.893Z,9.88
2023-01-13T21:40:25.528Z,9.83
2023-01-13T21:43:11.363Z,9.84
2023-01-13T21:45:57.605Z,9.84
2023-01-13T21:48:25.113Z,9.83
2023-01-13T21:50:52.584Z,9.88
2023-01-13T21:53:20.107Z,9.85
2023-01-13T21:55:52.243Z,9.84
2023-01-13T21:58:19.785Z,9.82
2023-01-13T22:00:49.072Z,9.79
2023-01-13T22:03:18.583Z,9.80
2023-01-13T22:05:46.896Z,9.84
2023-01-13T22:08:14.385Z,9.84
2023-01-13T22:10:57.764Z,9.85
2023-01-13T22:13:45.611Z,9.79
2023-01-13T22:16:13.970Z,9.80
2023-01-13T22:18:41.495Z,9.68
2023-01-13T22:21:09.447Z,9.71
2023-01-13T22:23:36.945Z,9.78
2023-01-13T22:26:05.984Z,9.78
2023-01-13T22:28:40.236Z,9.80
2023-01-13T22:31:14.000Z,9.88
2023-01-13T22:33:42.367Z,9.90
2023-01-13T22:36:10.600Z,9.92
2023-01-13T22:38:38.121Z,9.83
2023-01-13T22:41:08.675Z,9.84
2023-01-13T22:43:38.000Z,9.84
2023-01-13T22:46:09.365Z,9.79
2023-01-13T22:48:37.875Z,9.78
2023-01-13T22:51:14.151Z,9.79
2023-01-13T22:53:42.620Z,9.70
2023-01-13T22:56:19.936Z,9.69
2023-01-13T22:58:48.903Z,9.71
2023-01-13T23:01:17.591Z,9.68
2023-01-13T23:03:47.801Z,9.71
2023-01-13T23:06:18.111Z,9.73
2023-01-13T23:08:46.953Z,9.72
2023-01-13T23:11:17.583Z,9.68
2023-01-13T23:13:45.401Z,9.68
2023-01-13T23:16:17.103Z,9.60
2023-01-13T23:18:47.856Z,9.63
2023-01-13T23:21:22.576Z,9.67
2023-01-13T23:23:50.668Z,9.75
2023-01-13T23:26:19.519Z,9.78
2023-01-13T23:28:47.698Z,9.83
2023-01-13T23:31:19.442Z,9.82
2023-01-13T23:33:48.570Z,9.85
2023-01-13T23:36:23.487Z,9.79
2023-01-13T23:38:52.366Z,9.78
2023-01-13T23:41:23.996Z,9.72
2023-01-13T23:43:58.812Z,9.71
2023-01-13T23:46:31.164Z,9.69
2023-01-13T23:48:58.786Z,9.72
2023-01-13T23:51:27.452Z,9.74
2023-01-13T23:53:55.032Z,9.72
2023-01-13T23:56:26.699Z,9.72
2023-01-13T23:58:54.753Z,9.70
